Portada
METAR-TAF:

METAR-TAF

Aeropuertos :

Curazao, Antillas Neerlandesas

Aeropuerto Internacional Hato

latitud: 12-12N, longitud: 068-58W, altitud: 9 m

Observación

El informe se hizo hace 56 minutos, a las 21:00 UTC
Viento 9 kt del este
Temperatura 32°C
Humedad 71%
Presión 1007 hPa
Visibilidad 10 km o más
Escasas nubes a una altura de 2300 ft

METAR: TNCC 232100Z 09009KT 9999 FEW023 32/26 Q1007 NOSIG

Hora: 17:56 (21:56 UTC)

Pronóstico

El informe se hizo hace 5 horas y 56 minutos, a las 16:00 UTC
Pronóstico válido del 23 a las 18 UTC al 24 a las 18 UTC
Viento 13 kt del sureste
Visibilidad 10 km o más
Nubes dispersas a una altura de 1800 ft

TAF: TNCC 231600Z 2318/2418 13013KT 9999 SCT018

Observaciones y pronósticos meteorológicos de más de 4000 aeropuertos (mensajes METAR y TAF).

Los puntos amarillos y rojos representan las estaciones disponibles.

Ponga el ratón en el punto deseado para ver el nombre de la estación.

Haga clic para ver las observaciones y los pronósticos meteorológicos.

Para cambiar el mapa : haga clic en los botones verdes con una cruz de color negro para hacer un zoom, en el botón verde con un guión para alejar o en las flechas verdes para mapas adyacentes.


METAR-TAF: